createdAt,value
2017-06-19T00:00:11.377Z,56.80
2017-06-19T00:02:37.542Z,56.60
2017-06-19T00:05:06.838Z,57.00
2017-06-19T00:07:33.872Z,56.80
2017-06-19T00:10:00.841Z,57.60
2017-06-19T00:12:27.061Z,57.50
2017-06-19T00:14:53.979Z,57.50
2017-06-19T00:17:20.134Z,57.50
2017-06-19T00:19:47.074Z,57.50
2017-06-19T00:22:14.061Z,57.10
2017-06-19T00:24:40.241Z,57.10
2017-06-19T00:27:07.167Z,57.10
2017-06-19T00:29:33.396Z,56.70
2017-06-19T00:31:59.580Z,56.50
2017-06-19T00:34:25.774Z,56.20
2017-06-19T00:36:52.723Z,57.70
2017-06-19T00:39:19.646Z,56.50
2017-06-19T00:41:45.893Z,56.40
2017-06-19T00:44:12.846Z,57.80
2017-06-19T00:46:39.773Z,57.50
2017-06-19T00:49:05.964Z,56.10
2017-06-19T00:51:47.093Z,56.00
2017-06-19T00:54:14.038Z,56.80
2017-06-19T00:56:40.987Z,57.40
2017-06-19T00:59:07.885Z,56.80
2017-06-19T01:01:34.082Z,56.80
2017-06-19T01:04:00.308Z,57.20
2017-06-19T01:06:26.507Z,56.20
2017-06-19T01:08:53.411Z,55.40
2017-06-19T01:11:19.602Z,56.00
2017-06-19T01:13:45.854Z,56.50
2017-06-19T01:16:12.029Z,56.60
2017-06-19T01:18:38.204Z,55.70
2017-06-19T01:21:04.359Z,56.10
2017-06-19T01:23:30.569Z,55.90
2017-06-19T01:25:58.279Z,55.90
2017-06-19T01:28:24.447Z,56.30
2017-06-19T01:30:50.691Z,56.40
2017-06-19T01:33:16.874Z,57.00
2017-06-19T01:35:43.814Z,56.40
2017-06-19T01:38:10.038Z,56.50
2017-06-19T01:40:51.148Z,56.70
2017-06-19T01:43:17.386Z,56.60
2017-06-19T01:45:43.579Z,56.70
2017-06-19T01:48:10.491Z,58.40
2017-06-19T01:50:36.698Z,57.80
2017-06-19T01:53:02.931Z,58.20
2017-06-19T01:55:29.098Z,57.00
2017-06-19T01:57:55.298Z,57.20
2017-06-19T02:00:21.495Z,57.30
2017-06-19T02:02:47.664Z,57.20
2017-06-19T02:05:13.839Z,56.40
2017-06-19T02:07:40.781Z,57.40
2017-06-19T02:10:07.694Z,57.10
2017-06-19T02:12:33.859Z,57.10
2017-06-19T02:15:00.822Z,57.40
2017-06-19T02:17:27.008Z,57.40
2017-06-19T02:19:53.179Z,57.40
2017-06-19T02:22:19.708Z,57.10
2017-06-19T02:24:45.908Z,57.70
2017-06-19T02:27:12.799Z,57.30
2017-06-19T02:29:38.972Z,57.70
2017-06-19T02:32:05.173Z,57.00
2017-06-19T02:34:31.387Z,57.60
2017-06-19T02:36:57.554Z,57.70
2017-06-19T02:39:23.740Z,56.90
2017-06-19T02:41:49.958Z,57.50
2017-06-19T02:44:16.887Z,57.40
2017-06-19T02:46:43.090Z,57.30
2017-06-19T02:49:09.252Z,58.10
2017-06-19T02:51:35.450Z,58.50
2017-06-19T02:54:01.597Z,58.30
2017-06-19T02:56:28.533Z,58.20
2017-06-19T02:58:55.469Z,58.80
2017-06-19T03:01:22.408Z,58.90
2017-06-19T03:03:48.608Z,57.70
2017-06-19T03:06:14.764Z,57.50
2017-06-19T03:08:40.958Z,58.50
2017-06-19T03:11:07.168Z,59.00
2017-06-19T03:13:33.357Z,58.70
2017-06-19T03:15:59.586Z,58.30
2017-06-19T03:18:26.569Z,59.70
2017-06-19T03:20:52.795Z,58.30
2017-06-19T03:23:18.986Z,59.40
2017-06-19T03:25:45.987Z,60.10
2017-06-19T03:28:12.199Z,58.50
2017-06-19T03:30:38.351Z,58.70
2017-06-19T03:33:04.566Z,59.30
2017-06-19T03:35:30.748Z,59.80
2017-06-19T03:37:56.920Z,59.90
2017-06-19T03:40:23.149Z,59.50
2017-06-19T03:42:49.327Z,60.00
2017-06-19T03:45:15.511Z,59.30
2017-06-19T03:47:41.686Z,59.60
2017-06-19T03:50:07.836Z,60.20
2017-06-19T03:52:33.989Z,60.90
2017-06-19T03:55:00.171Z,60.80
2017-06-19T03:57:42.051Z,60.70
2017-06-19T04:00:08.274Z,60.30
2017-06-19T04:02:34.463Z,61.20
2017-06-19T04:05:00.614Z,60.10
2017-06-19T04:07:26.769Z,60.10
2017-06-19T04:09:52.930Z,60.90
2017-06-19T04:12:19.109Z,61.40
2017-06-19T04:14:45.313Z,61.50
2017-06-19T04:17:11.518Z,61.20
2017-06-19T04:19:37.738Z,60.30
2017-06-19T04:22:03.895Z,59.50
2017-06-19T04:24:30.099Z,60.90
2017-06-19T04:26:56.309Z,57.60
2017-06-19T04:29:38.175Z,57.90
2017-06-19T04:32:05.112Z,57.00
2017-06-19T04:34:31.302Z,57.00
2017-06-19T04:36:57.492Z,56.60
2017-06-19T04:39:23.696Z,56.40
2017-06-19T04:41:49.902Z,56.30
2017-06-19T04:44:16.126Z,56.10
2017-06-19T04:46:42.308Z,56.60
2017-06-19T04:49:08.535Z,56.40
2017-06-19T04:51:34.758Z,56.10
2017-06-19T04:54:00.934Z,55.60
2017-06-19T04:56:27.066Z,56.40
2017-06-19T04:58:53.254Z,56.00
2017-06-19T05:01:19.433Z,56.20
2017-06-19T05:03:45.612Z,55.10
2017-06-19T05:06:11.812Z,55.20
2017-06-19T05:08:52.875Z,55.80
2017-06-19T05:11:19.079Z,54.90
2017-06-19T05:13:45.619Z,54.50
2017-06-19T05:16:11.788Z,53.80
2017-06-19T05:18:38.075Z,53.50
2017-06-19T05:21:04.625Z,52.20
2017-06-19T05:23:30.795Z,53.40
2017-06-19T05:25:57.007Z,54.10
2017-06-19T05:28:23.231Z,53.70
2017-06-19T05:30:49.411Z,53.40
2017-06-19T05:33:15.582Z,52.40
2017-06-19T05:35:41.721Z,51.80
2017-06-19T05:38:07.983Z,53.10
2017-06-19T05:40:34.895Z,50.90
2017-06-19T05:43:01.140Z,50.80
2017-06-19T05:45:27.350Z,53.00
2017-06-19T05:47:53.546Z,51.20
2017-06-19T05:50:19.722Z,50.60
2017-06-19T05:52:45.877Z,51.40
2017-06-19T05:55:12.831Z,50.20
2017-06-19T05:57:39.045Z,50.10
2017-06-19T06:00:05.976Z,50.30
2017-06-19T06:02:32.162Z,47.80
2017-06-19T06:04:58.344Z,48.00
2017-06-19T06:07:25.231Z,47.70
2017-06-19T06:09:51.444Z,49.40
2017-06-19T06:12:18.300Z,47.40
2017-06-19T06:14:44.487Z,48.40
2017-06-19T06:17:11.467Z,47.50
2017-06-19T06:19:37.644Z,47.80
2017-06-19T06:22:03.816Z,47.30
2017-06-19T06:24:30.002Z,49.10
2017-06-19T06:26:56.178Z,48.30
2017-06-19T06:29:22.369Z,48.60
2017-06-19T06:31:49.314Z,46.70
2017-06-19T06:34:15.482Z,46.50
2017-06-19T06:36:41.707Z,45.30
2017-06-19T06:39:07.867Z,44.60
2017-06-19T06:41:34.035Z,45.00
2017-06-19T06:44:01.010Z,45.20
2017-06-19T06:46:27.160Z,44.70
2017-06-19T06:48:53.316Z,44.00
2017-06-19T06:51:19.603Z,45.60
2017-06-19T06:53:45.791Z,44.70
2017-06-19T06:56:12.699Z,42.10
2017-06-19T06:58:38.899Z,42.10
2017-06-19T07:01:05.067Z,43.60
2017-06-19T07:03:31.266Z,42.80
2017-06-19T07:05:57.448Z,41.30
2017-06-19T07:08:24.376Z,43.40
2017-06-19T07:10:50.544Z,43.80
2017-06-19T07:13:16.818Z,42.60
2017-06-19T07:15:42.985Z,40.50
2017-06-19T07:18:09.919Z,41.30
2017-06-19T07:20:36.131Z,41.30
2017-06-19T07:23:02.308Z,39.80
2017-06-19T07:25:28.531Z,41.70
2017-06-19T07:27:54.742Z,39.10
2017-06-19T07:30:21.679Z,39.80
2017-06-19T07:32:48.643Z,40.80
2017-06-19T07:35:14.803Z,40.30
2017-06-19T07:37:41.026Z,40.30
2017-06-19T07:40:07.217Z,39.50
2017-06-19T07:42:34.163Z,38.40
2017-06-19T07:45:06.498Z,38.20
2017-06-19T07:47:32.694Z,36.70
2017-06-19T07:49:58.880Z,35.80
2017-06-19T07:52:25.435Z,36.10
2017-06-19T07:54:52.333Z,36.50
2017-06-19T07:57:18.526Z,33.90
2017-06-19T07:59:44.718Z,35.30
2017-06-19T08:02:11.682Z,34.70
2017-06-19T08:04:37.899Z,34.80
2017-06-19T08:07:04.798Z,34.20
2017-06-19T08:09:30.987Z,34.20
2017-06-19T08:11:57.920Z,32.80
2017-06-19T08:14:24.835Z,33.10
2017-06-19T08:16:51.095Z,34.20
2017-06-19T08:19:18.115Z,37.10
2017-06-19T08:21:50.291Z,36.60
2017-06-19T08:24:16.451Z,35.70
2017-06-19T08:26:42.657Z,36.30
2017-06-19T08:29:08.821Z,37.60
2017-06-19T08:31:35.355Z,39.20
2017-06-19T08:34:01.938Z,34.40
2017-06-19T08:36:28.105Z,35.40
2017-06-19T08:38:55.083Z,36.20
2017-06-19T08:41:21.332Z,36.20
2017-06-19T08:43:47.527Z,34.00
2017-06-19T08:46:13.744Z,33.70
2017-06-19T08:48:39.938Z,35.00
2017-06-19T08:51:06.134Z,36.40
2017-06-19T08:53:32.295Z,35.10
2017-06-19T08:55:58.520Z,33.00
2017-06-19T08:58:24.695Z,34.40
2017-06-19T09:00:50.924Z,33.90
2017-06-19T09:03:32.043Z,34.20
2017-06-19T09:05:58.260Z,34.30
2017-06-19T09:08:24.452Z,33.60
2017-06-19T09:10:50.635Z,34.20
2017-06-19T09:13:16.847Z,32.90
2017-06-19T09:15:43.036Z,33.00
2017-06-19T09:18:09.230Z,32.30
2017-06-19T09:20:35.393Z,32.70
2017-06-19T09:23:01.584Z,34.50
2017-06-19T09:25:27.824Z,35.20
2017-06-19T09:27:54.009Z,32.00
2017-06-19T09:30:20.180Z,33.30
2017-06-19T09:32:46.347Z,36.30
2017-06-19T09:35:12.518Z,34.00
2017-06-19T09:37:38.730Z,34.50
2017-06-19T09:40:04.953Z,35.40
2017-06-19T09:42:31.111Z,37.50
2017-06-19T09:44:57.296Z,34.10
2017-06-19T09:47:23.489Z,34.10
2017-06-19T09:49:49.658Z,34.00
2017-06-19T09:52:15.839Z,34.50
2017-06-19T09:54:42.752Z,33.60
2017-06-19T09:57:08.954Z,32.70
2017-06-19T09:59:35.126Z,33.40
2017-06-19T10:02:01.270Z,32.50
2017-06-19T10:04:28.176Z,34.70
2017-06-19T10:06:54.363Z,31.00
2017-06-19T10:09:20.515Z,30.90
2017-06-19T10:11:46.702Z,31.10
2017-06-19T10:14:13.679Z,29.40
2017-06-19T10:16:39.903Z,29.50
2017-06-19T10:19:06.134Z,29.80
2017-06-19T10:21:32.334Z,29.80
2017-06-19T10:23:59.272Z,29.10
2017-06-19T10:26:26.223Z,29.70
2017-06-19T10:28:53.146Z,29.30
2017-06-19T10:31:19.329Z,29.20
2017-06-19T10:33:45.523Z,30.00
2017-06-19T10:36:12.479Z,29.40
2017-06-19T10:38:39.390Z,30.00
2017-06-19T10:41:05.583Z,30.30
2017-06-19T10:43:31.778Z,30.10
2017-06-19T10:45:58.686Z,30.80
2017-06-19T10:48:24.931Z,31.10
2017-06-19T10:50:51.126Z,30.50
2017-06-19T10:53:17.340Z,28.60
2017-06-19T10:55:43.545Z,29.50
2017-06-19T10:58:09.743Z,30.10
2017-06-19T11:00:35.951Z,28.90
2017-06-19T11:03:02.201Z,28.80
2017-06-19T11:07:57.014Z,28.30
2017-06-19T11:10:23.196Z,29.60
2017-06-19T11:12:49.459Z,28.40
2017-06-19T11:15:15.652Z,28.80
2017-06-19T11:17:41.878Z,29.00
2017-06-19T11:20:08.074Z,27.90
2017-06-19T11:22:34.987Z,28.10
2017-06-19T11:25:01.187Z,27.90
2017-06-19T11:27:27.380Z,27.80
2017-06-19T11:29:54.282Z,29.40
2017-06-19T11:32:20.468Z,29.00
2017-06-19T11:34:46.639Z,29.10
2017-06-19T11:37:12.882Z,28.80
2017-06-19T11:39:39.030Z,28.00
2017-06-19T11:42:05.949Z,29.20
2017-06-19T11:44:32.146Z,30.00
2017-06-19T11:46:58.317Z,28.20
2017-06-19T11:49:24.474Z,28.70
2017-06-19T11:51:50.819Z,30.00
2017-06-19T11:54:17.087Z,30.30
2017-06-19T11:56:43.336Z,30.60
2017-06-19T11:59:09.527Z,30.40
2017-06-19T12:01:35.698Z,30.70
2017-06-19T12:04:01.897Z,31.10
2017-06-19T12:06:28.102Z,32.50
2017-06-19T12:08:54.267Z,29.80
2017-06-19T12:11:21.014Z,31.50
2017-06-19T12:13:48.249Z,30.80
2017-06-19T12:16:14.445Z,28.50
2017-06-19T12:18:40.630Z,31.70
2017-06-19T12:21:06.858Z,30.50
2017-06-19T12:23:33.083Z,28.80
2017-06-19T12:26:00.394Z,29.90
2017-06-19T12:28:26.570Z,30.00
2017-06-19T12:30:54.374Z,30.70
2017-06-19T12:33:20.634Z,29.60
2017-06-19T12:35:46.835Z,30.90
2017-06-19T12:38:13.025Z,30.40
2017-06-19T12:40:39.245Z,31.40
2017-06-19T12:43:05.397Z,30.20
2017-06-19T12:45:32.713Z,30.70
2017-06-19T12:47:58.866Z,30.70
2017-06-19T12:50:25.753Z,31.50
2017-06-19T12:52:51.903Z,30.00
2017-06-19T12:55:18.129Z,31.10
2017-06-19T12:57:44.320Z,32.50
2017-06-19T13:00:10.523Z,31.80
2017-06-19T13:02:37.442Z,31.30
2017-06-19T13:05:03.588Z,31.10
2017-06-19T13:07:29.759Z,31.60
2017-06-19T13:09:55.950Z,29.40
2017-06-19T13:12:22.853Z,31.30
2017-06-19T13:14:49.034Z,30.60
2017-06-19T13:17:15.948Z,30.60
2017-06-19T13:19:42.162Z,29.50
2017-06-19T13:22:08.293Z,31.80
2017-06-19T13:24:34.466Z,29.40
2017-06-19T13:27:01.376Z,31.40
2017-06-19T13:29:27.596Z,31.30
2017-06-19T13:31:53.785Z,31.80
2017-06-19T13:34:19.944Z,29.80
2017-06-19T13:36:46.120Z,31.20
2017-06-19T13:39:13.099Z,32.20
2017-06-19T13:41:39.240Z,31.50
2017-06-19T13:44:05.419Z,32.00
2017-06-19T13:46:32.343Z,32.50
2017-06-19T13:48:58.528Z,31.50
2017-06-19T13:51:24.712Z,32.10
2017-06-19T13:53:51.659Z,31.90
2017-06-19T13:56:18.603Z,32.50
2017-06-19T13:58:45.526Z,33.50
2017-06-19T14:01:11.699Z,32.40
2017-06-19T14:03:37.891Z,33.30
2017-06-19T14:06:04.039Z,33.00
2017-06-19T14:08:30.930Z,33.10
2017-06-19T14:10:57.118Z,33.20
2017-06-19T14:13:24.018Z,33.90
2017-06-19T14:15:50.236Z,33.40
2017-06-19T14:18:16.404Z,35.30
2017-06-19T14:20:43.338Z,33.80
2017-06-19T14:23:09.555Z,33.80
2017-06-19T14:25:35.742Z,34.30
2017-06-19T14:28:01.927Z,32.80
2017-06-19T14:30:28.522Z,33.60
2017-06-19T14:32:54.687Z,34.10
2017-06-19T14:35:20.874Z,33.40
2017-06-19T14:37:47.090Z,34.60
2017-06-19T14:40:13.287Z,33.70
2017-06-19T14:42:40.204Z,35.70
2017-06-19T14:45:06.389Z,34.80
2017-06-19T14:47:33.320Z,34.80
2017-06-19T14:49:59.876Z,35.20
2017-06-19T14:52:26.085Z,36.30
2017-06-19T14:54:52.339Z,34.60
2017-06-19T14:57:18.524Z,35.80
2017-06-19T14:59:44.734Z,34.90
2017-06-19T15:02:10.998Z,34.70
2017-06-19T15:04:37.949Z,36.50
2017-06-19T15:07:04.118Z,35.70
2017-06-19T15:09:30.290Z,36.00
2017-06-19T15:11:57.216Z,37.90
2017-06-19T15:14:23.382Z,36.00
2017-06-19T15:16:49.548Z,35.80
2017-06-19T15:19:15.722Z,35.40
2017-06-19T15:21:48.709Z,35.50
2017-06-19T15:24:15.659Z,35.50
2017-06-19T15:26:42.568Z,36.80
2017-06-19T15:29:08.775Z,36.60
2017-06-19T15:31:35.011Z,35.40
2017-06-19T15:34:01.196Z,35.80
2017-06-19T15:36:28.163Z,36.10
2017-06-19T15:38:54.409Z,35.90
2017-06-19T15:41:20.581Z,35.70
2017-06-19T15:43:47.514Z,37.10
2017-06-19T15:46:13.705Z,36.30
2017-06-19T15:48:39.890Z,36.00
2017-06-19T15:51:06.827Z,37.10
2017-06-19T15:53:33.065Z,37.10
2017-06-19T15:56:00.014Z,37.30
2017-06-19T15:58:26.287Z,37.30
2017-06-19T16:00:52.556Z,37.40
2017-06-19T16:03:18.788Z,36.70
2017-06-19T16:05:44.975Z,38.20
2017-06-19T16:08:11.244Z,37.40
2017-06-19T16:10:37.475Z,37.80
2017-06-19T16:13:03.658Z,37.30
2017-06-19T16:15:29.912Z,37.50
2017-06-19T16:17:56.079Z,36.80
2017-06-19T16:20:25.912Z,37.30
2017-06-19T16:22:52.471Z,36.00
2017-06-19T16:25:18.734Z,37.50
2017-06-19T16:27:44.959Z,36.30
2017-06-19T16:30:11.135Z,36.40
2017-06-19T16:32:37.353Z,37.00
2017-06-19T16:35:03.579Z,38.10
2017-06-19T16:37:29.823Z,36.50
2017-06-19T16:39:56.068Z,38.20
2017-06-19T16:42:22.255Z,37.30
2017-06-19T16:44:49.179Z,39.30
2017-06-19T16:47:15.367Z,38.70
2017-06-19T16:49:41.571Z,38.00
2017-06-19T16:52:07.740Z,39.50
2017-06-19T16:54:33.975Z,38.70
2017-06-19T16:57:00.208Z,38.50
2017-06-19T16:59:26.394Z,38.70
2017-06-19T17:01:52.620Z,38.70
2017-06-19T17:04:18.800Z,39.40
2017-06-19T17:06:44.980Z,39.30
2017-06-19T17:09:11.202Z,40.00
2017-06-19T17:11:37.403Z,39.30
2017-06-19T17:14:04.334Z,40.70
2017-06-19T17:16:30.502Z,40.70
2017-06-19T17:18:56.662Z,40.50
2017-06-19T17:21:22.905Z,40.50
2017-06-19T17:23:49.132Z,38.90
2017-06-19T17:26:15.345Z,39.30
2017-06-19T17:28:41.535Z,39.20
2017-06-19T17:31:07.798Z,40.00
2017-06-19T17:33:34.019Z,39.20
2017-06-19T17:36:00.611Z,40.50
2017-06-19T17:38:28.338Z,40.60
2017-06-19T17:40:54.535Z,40.70
2017-06-19T17:43:20.768Z,40.10
2017-06-19T17:45:46.954Z,40.70
2017-06-19T17:48:13.106Z,39.80
2017-06-19T17:50:40.027Z,41.00
2017-06-19T17:53:06.259Z,40.90
2017-06-19T17:55:32.466Z,40.50
2017-06-19T17:57:58.687Z,40.20
2017-06-19T18:00:24.945Z,39.20
2017-06-19T18:02:51.230Z,39.60
2017-06-19T18:05:17.464Z,38.60
2017-06-19T18:07:43.678Z,38.30
2017-06-19T18:10:09.863Z,38.50
2017-06-19T18:12:36.548Z,40.50
2017-06-19T18:15:02.735Z,38.80
2017-06-19T18:17:29.659Z,41.50
2017-06-19T18:19:55.933Z,41.80
2017-06-19T18:22:22.601Z,41.90
2017-06-19T18:24:49.573Z,42.20
2017-06-19T18:27:15.977Z,42.30
2017-06-19T18:29:42.211Z,42.70
2017-06-19T18:32:08.411Z,43.90
2017-06-19T18:34:34.652Z,44.10
2017-06-19T18:45:39.797Z,45.40
2017-06-19T18:48:05.985Z,46.20
2017-06-19T18:50:32.243Z,46.30
2017-06-19T18:52:58.551Z,46.80
2017-06-19T18:55:24.758Z,46.80
2017-06-19T18:57:50.987Z,47.20
2017-06-19T19:00:17.891Z,47.20
2017-06-19T19:02:44.107Z,47.50
2017-06-19T19:05:10.313Z,48.00
2017-06-19T19:07:36.686Z,48.00
2017-06-19T19:10:03.173Z,47.80
2017-06-19T19:12:30.227Z,48.80
2017-06-19T19:14:56.448Z,48.60
2017-06-19T19:17:22.705Z,49.20
2017-06-19T19:19:48.900Z,48.80
2017-06-19T19:22:15.108Z,49.20
2017-06-19T19:24:42.010Z,49.60
2017-06-19T19:27:08.228Z,49.50
2017-06-19T19:29:34.486Z,49.40
2017-06-19T19:32:00.693Z,49.30
2017-06-19T19:34:26.938Z,49.80
2017-06-19T19:36:53.191Z,50.10
2017-06-19T19:39:20.116Z,49.80
2017-06-19T19:41:47.127Z,49.70
2017-06-19T19:44:13.409Z,49.00
2017-06-19T19:46:40.343Z,50.00
2017-06-19T19:49:06.554Z,49.00
2017-06-19T19:51:32.753Z,49.20
2017-06-19T19:53:58.965Z,49.30
2017-06-19T19:56:25.319Z,49.00
2017-06-19T19:58:51.581Z,49.10
2017-06-19T20:01:17.831Z,50.00
2017-06-19T20:03:44.890Z,49.80
2017-06-19T20:06:11.835Z,49.30
2017-06-19T20:08:38.067Z,49.00
2017-06-19T20:11:05.096Z,49.60
2017-06-19T20:13:32.094Z,49.70
2017-06-19T20:15:59.331Z,49.10
2017-06-19T20:18:26.112Z,49.40
2017-06-19T20:20:53.074Z,49.30
2017-06-19T20:23:20.777Z,48.90
2017-06-19T20:25:47.274Z,49.70
2017-06-19T20:28:14.998Z,49.30
2017-06-19T20:30:42.338Z,49.70
2017-06-19T20:33:10.168Z,49.70
2017-06-19T20:35:36.596Z,49.70
2017-06-19T20:38:02.803Z,48.90
2017-06-19T20:40:29.030Z,49.20
2017-06-19T20:42:55.259Z,49.60
2017-06-19T20:45:21.430Z,49.10
2017-06-19T20:47:48.419Z,49.30
2017-06-19T20:50:14.689Z,49.00
2017-06-19T20:52:40.882Z,48.80
2017-06-19T20:55:07.104Z,49.00
2017-06-19T20:57:33.299Z,48.70
2017-06-19T21:00:00.216Z,49.40
2017-06-19T21:02:26.455Z,49.40
2017-06-19T21:04:53.421Z,48.70
2017-06-19T21:07:19.602Z,49.30
2017-06-19T21:09:45.859Z,48.80
2017-06-19T21:12:12.762Z,50.00
2017-06-19T21:14:38.977Z,49.30
2017-06-19T21:17:05.174Z,49.00
2017-06-19T21:19:32.168Z,50.00
2017-06-19T21:21:58.463Z,49.20
2017-06-19T21:24:24.726Z,49.20
2017-06-19T21:26:50.915Z,49.20
2017-06-19T21:29:17.915Z,49.80
2017-06-19T21:31:44.083Z,49.40
2017-06-19T21:34:11.048Z,50.10
2017-06-19T21:36:37.255Z,49.90
2017-06-19T21:39:04.236Z,50.70
2017-06-19T21:41:30.428Z,50.00
2017-06-19T21:43:57.376Z,51.40
2017-06-19T21:46:24.280Z,51.80
2017-06-19T21:48:50.481Z,50.50
2017-06-19T21:51:16.735Z,50.80
2017-06-19T21:53:42.963Z,50.90
2017-06-19T21:56:09.165Z,51.50
2017-06-19T21:58:35.446Z,51.30
2017-06-19T22:01:01.651Z,51.50
2017-06-19T22:03:27.821Z,51.00
2017-06-19T22:05:54.790Z,52.40
2017-06-19T22:08:21.004Z,51.20
2017-06-19T22:10:47.907Z,52.00
2017-06-19T22:13:14.077Z,52.20
2017-06-19T22:15:41.048Z,52.80
2017-06-19T22:18:07.277Z,51.60
2017-06-19T22:20:55.246Z,51.60
2017-06-19T22:23:21.483Z,52.20
2017-06-19T22:25:47.793Z,51.90
2017-06-19T22:28:14.009Z,52.30
2017-06-19T22:30:40.199Z,52.70
2017-06-19T22:33:07.223Z,53.00
2017-06-19T22:35:33.470Z,52.10
2017-06-19T22:37:59.669Z,52.20
2017-06-19T22:40:25.837Z,52.00
2017-06-19T22:42:53.521Z,52.60
2017-06-19T22:45:19.734Z,51.90
2017-06-19T22:47:46.691Z,52.70
2017-06-19T22:50:12.888Z,52.50
2017-06-19T22:52:39.076Z,52.40
2017-06-19T22:55:05.260Z,53.00
2017-06-19T22:57:32.232Z,53.00
2017-06-19T22:59:58.692Z,53.00
2017-06-19T23:02:24.939Z,52.50
2017-06-19T23:04:51.135Z,53.20
2017-06-19T23:07:17.355Z,53.10
2017-06-19T23:09:43.531Z,52.90
2017-06-19T23:12:09.711Z,52.90
2017-06-19T23:14:35.919Z,52.30
2017-06-19T23:17:02.854Z,52.80
2017-06-19T23:19:29.042Z,52.20
2017-06-19T23:21:55.203Z,52.10
2017-06-19T23:24:22.148Z,52.10
2017-06-19T23:26:49.062Z,52.60
2017-06-19T23:29:15.267Z,52.10
2017-06-19T23:31:41.441Z,52.60
2017-06-19T23:34:07.589Z,53.30
2017-06-19T23:36:34.499Z,53.20
2017-06-19T23:39:00.675Z,53.20
2017-06-19T23:41:26.868Z,53.30
2017-06-19T23:43:53.054Z,54.40
2017-06-19T23:46:19.267Z,53.50
2017-06-19T23:48:45.452Z,53.40
2017-06-19T23:51:11.622Z,53.10
2017-06-19T23:53:37.787Z,53.50
2017-06-19T23:56:03.984Z,52.80
2017-06-19T23:58:30.163Z,52.90
